MSC Nuria — 3ESE2 — position and weather

sailwx.info

Track history (hours):
 
Tides and Currents Weather Stations Pressure Air Temp Water Temp Dewpoint Dewpoint Depression Visibility Wind Speed Wind Dir Waves Ship Positions

MSC Nuria

Last reported at 2018-Jan-12 14:58 UTC. Time now 2018-Jan-18 17:57 UTC.
Position N 41°19' E 140°17'.

Length 275 m; draft 10 m.

Type: Ship (hazmat cat A). MMSI: 370272977.

Date/timePositionNaut miles runAvg speedWind from/ knotsBaromVisibWave heightAir tempDewpointWater temp
2018-Jan-12 14:58N 41°19' E 140°17'714.0
2018-Jan-12 14:30N 41°23' E 140°25'815.7
2018-Jan-12 14:00N 41°27' E 140°33'816.2
2018-Jan-12 13:30N 41°32' E 140°42'815.1
2018-Jan-12 13:00N 41°37' E 140°50'713.9
2018-Jan-12 12:30N 41°37' E 140°59'815.3
2018-Jan-12 12:00N 41°37' E 141°10'816.8
2018-Jan-12 11:30N 41°37' E 141°21'815.2
2018-Jan-12 11:00N 41°36' E 141°31'713.6
2018-Jan-12 10:30N 41°36' E 141°40'  
Track history (hours):
 
Tides and Currents Weather Stations Pressure Air Temp Water Temp Dewpoint Dewpoint Depression Visibility Wind Speed Wind Dir Waves Ship Positions

MSC Nuria

Last reported at 2018-Jan-12 14:58 UTC. Time now 2018-Jan-18 17:57 UTC.
Position N 41°19' E 140°17'.

Length 275 m; draft 10 m.

Type: Ship (hazmat cat A). MMSI: 370272977.

Date/timePositionNaut miles runAvg speedWind from/ knotsBaromVisibWave heightAir tempDewpointWater temp
2018-Jan-12 14:58N 41°19' E 140°17'714.0
2018-Jan-12 14:30N 41°23' E 140°25'815.7
2018-Jan-12 14:00N 41°27' E 140°33'816.2
2018-Jan-12 13:30N 41°32' E 140°42'815.1
2018-Jan-12 13:00N 41°37' E 140°50'713.9
2018-Jan-12 12:30N 41°37' E 140°59'815.3
2018-Jan-12 12:00N 41°37' E 141°10'816.8
2018-Jan-12 11:30N 41°37' E 141°21'815.2
2018-Jan-12 11:00N 41°36' E 141°31'713.6
2018-Jan-12 10:30N 41°36' E 141°40'  

Dump ship's entire track history